Terminal Aerodrome Forecast
Issued by NWS Bismarck, ND

Home | Current Version | Previous Version | Graphics & Text | Print | Product List | Glossary On
Versions: 1 2 3 4 5 6 7 8 9 10 11 12 13 14 15
100
FTUS43 KBIS 142145 AAA
TAFISN
TAF AMD
KISN 142145Z 1422/1518 34012G17KT P6SM SKC
     FM150200 34010KT P6SM SKC
     FM151200 33006KT P6SM SKC=

USA.gov is the U.S. government's official web portal to all federal, state and local government web resources and services.